Accueil
METAR-TAF:

METAR-TAF

Aéroports :

Aéroport de Luxembourg-Findel

Luxembourg, Luxembourg

latitude: 49-37N, longitude: 006-13E, altitude: 376 m

Observation

Le bulletin a été fait il y a 40 minutes, à 01:20 UTC
Vent 5 kt de nord
Température 3°C
Humidité 75%
Pression 1023 hPa
Visibilité 10 km ou plus

METAR: ELLX 170120Z AUTO 35005KT 9999 OVC098/// 03/M01 Q1023 NOSIG

Heure: 04:00 (02:00 UTC)

Prévision

Le bulletin a été fait il y a 3 heures et 0 minutes, à 23:00 UTC
Prévision valable du 17 à 00 UTC au 18 à 06 UTC
Vent 10 kt de nord/nord-est
Visibilité 10 km ou plus
pas de nuages en-dessous de 1500 mètres et pas de cumulonimbus.

TAF: ELLX 162300Z 1700/1806 03010KT CAVOK

Observations et prévisions météorologiques de plus de 4000 aéroports (messages METAR et TAF).

Les stations disponibles sont représentées par des disques jaunes et rouges sur la carte.

Passer la souris dessus pour voir le nom de la station.

Cliquer dessus pour voir les observations et prévisions météorologiques.

Pour changer de carte: cliquez sur les boutons verts avec une croix noire pour zoomer, sur le bouton vert avec un tiret pour effectuer un zoom arrière, ou sur les flèches vertes pour les cartes adjacentes.


METAR-TAF: